Date,TemperatureHighF,TemperatureAvgF,TemperatureLowF,DewpointHighF,DewpointAvgF,DewpointLowF,HumidityHigh,HumidityAvg,HumidityLow,PressureMaxIn,PressureMinIn,WindSpeedMaxMPH,WindSpeedAvgMPH,GustSpeedMaxMPH,PrecipitationSumIn
2013-3-1,32,27,24,13,-2,-12,47,29,18,30.26,30.09,16,6,16,0.00
2013-3-2,31,23,15,-1,-12,-18,34,21,15,30.30,30.21,12,3,12,0.00
2013-3-3,38,24,10,0,-12,-18,42,21,14,30.21,30.06,10,2,10,0.00
2013-3-4,38,30,24,4,-5,-15,39,23,14,30.09,29.94,26,9,26,0.00
2013-3-5,32,30,27,16,10,4,54,43,31,30.15,29.88,16,4,16,0.00
2013-3-6,30,26,22,6,-2,-10,42,29,18,30.38,30.15,15,4,15,0.00
2013-3-7,36,28,24,2,-3,-11,35,26,14,30.44,30.32,10,2,10,0.00
2013-3-8,44,33,21,10,2,-6,43,29,13,30.44,30.24,15,6,15,0.00
2013-3-9,42,38,35,27,19,9,57,47,32,30.24,29.79,15,6,15,0.31
2013-3-10,45,43,38,35,32,26,70,65,53,29.79,29.65,16,2,16,1.06
2013-3-11,38,34,29,29,21,2,73,61,31,29.94,29.65,13,1,13,0.04
2013-3-12,37,29,25,13,2,-12,43,31,16,30.18,29.91,15,3,15,0.00
2013-3-13,37,28,21,-2,-8,-15,34,21,14,30.41,30.15,13,4,13,0.00
2013-3-14,41,30,22,6,-3,-10,33,24,16,30.35,30.09,6,1,6,0.00
2013-3-15,47,38,30,17,8,-1,48,32,14,30.09,29.76,13,3,13,0.00
2013-3-16,38,34,31,20,7,-9,59,35,14,30.18,29.76,13,5,13,0.00
2013-3-17,37,32,25,1,-8,-15,25,18,14,30.24,29.94,15,8,15,0.00
2013-3-18,37,30,21,18,4,-17,49,34,17,29.94,29.73,16,6,16,0.04
2013-3-19,36,25,16,-8,-14,-20,18,16,14,30.21,29.91,15,6,15,0.00
2013-3-20,29,21,13,-10,-17,-22,19,18,15,30.26,30.12,17,7,17,0.00
2013-3-21,36,23,11,-8,-16,-24,21,17,14,30.18,30.06,13,2,13,0.00
2013-3-22,44,30,16,2,-8,-18,40,20,13,30.15,30.06,9,1,9,0.00
2013-3-23,46,36,26,0,-8,-13,28,15,12,30.18,30.06,12,3,12,0.00
2013-3-24,34,31,30,16,11,-9,58,44,15,30.06,29.79,15,6,15,0.00
2013-3-25,38,32,28,16,0,-9,58,28,14,30.18,29.85,13,5,13,0.20
2013-3-26,38,34,30,4,-7,-12,30,17,14,30.32,30.18,9,2,9,0.00
2013-3-27,50,37,28,9,-5,-13,38,18,11,30.41,30.30,9,1,9,0.00
2013-3-28,58,41,25,12,0,-9,40,19,11,30.41,30.30,8,1,8,0.00
2013-3-29,61,46,31,16,2,-6,40,18,11,30.35,30.26,9,2,9,0.00
2013-3-30,58,47,37,25,5,-6,41,19,12,30.26,29.91,15,4,15,0.00
2013-3-31,58,47,35,32,12,-9,62,30,11,30.06,29.88,15,4,15,0.00